Kaiwo Maru — JMMU — position and weather

sailwx.info

Track history (hours):
 
Tides and Currents Weather Stations Pressure Air Temp Water Temp Dewpoint Dewpoint Depression Visibility Wind Speed Wind Dir Waves Ship Positions

Kaiwo Maru (Japan)

Built in 1989. Trains merchant marine cadets for Japan's National Institute for Sea Training.

Ship's website: http://www.kohkun.go.jp/en/ships/kaiwomaru.html

Last reported at 2020-Jan-18 17:49 UTC. Time now 2020-Jan-18 20:51 UTC.
Position N 34°39' E 135°26'.

Length 110.1 m; beam 13.8 m; draft 6 m.

Type: Sailing vessel. MMSI: 431006000.

Date/timePositionNaut miles runAvg speedWind from/ knotsBaromVisibWave heightAir tempDewpointWater temp
2020-Jan-18 17:49N 34°39' E 135°26'  
2020-Jan-16 04:30N 34°32' E 134°45'5 9.5
2020-Jan-16 04:00N 34°30' E 134°39'6 9.8
2020-Jan-16 03:23N 34°28' E 134°32'  
2020-Jan-11 23:32N 34°25' E 134°22'810.7
2020-Jan-11 22:49N 34°28' E 134°31'310.7
2020-Jan-11 22:30N 34°29' E 134°34'1110.9
2020-Jan-11 21:30N 34°33' E 134°46'611.0
2020-Jan-11 21:00N 34°35' E 134°53'22 5.5
2020-Jan-11 17:00N 34°14' E 134°59'10 9.4
2020-Jan-11 15:58N 34°04' E 134°58'247 7.8
2020-Jan-10 08:30N 35°18' E 139°44'5 9.5
2020-Jan-10 08:00N 35°23' E 139°42'4 7.1
2020-Jan-10 07:31N 35°26' E 139°43'0 0.3
2020-Jan-10 06:59N 35°26' E 139°43'0 0.1
2020-Jan-10 06:29N 35°26' E 139°43'3 0.6
2020-Jan-10 01:30N 35°27' E 139°46'4 8.0
2020-Jan-10 00:57N 35°29' E 139°51'6 0.4
2020-Jan-09 09:19N 35°35' E 139°54'  
Track history (hours):
 
Tides and Currents Weather Stations Pressure Air Temp Water Temp Dewpoint Dewpoint Depression Visibility Wind Speed Wind Dir Waves Ship Positions

Kaiwo Maru (Japan)

Built in 1989. Trains merchant marine cadets for Japan's National Institute for Sea Training.

Ship's website: http://www.kohkun.go.jp/en/ships/kaiwomaru.html

Last reported at 2020-Jan-18 17:49 UTC. Time now 2020-Jan-18 20:51 UTC.
Position N 34°39' E 135°26'.

Length 110.1 m; beam 13.8 m; draft 6 m.

Type: Sailing vessel. MMSI: 431006000.

Date/timePositionNaut miles runAvg speedWind from/ knotsBaromVisibWave heightAir tempDewpointWater temp
2020-Jan-18 17:49N 34°39' E 135°26'  
2020-Jan-16 04:30N 34°32' E 134°45'5 9.5
2020-Jan-16 04:00N 34°30' E 134°39'6 9.8
2020-Jan-16 03:23N 34°28' E 134°32'  
2020-Jan-11 23:32N 34°25' E 134°22'810.7
2020-Jan-11 22:49N 34°28' E 134°31'310.7
2020-Jan-11 22:30N 34°29' E 134°34'1110.9
2020-Jan-11 21:30N 34°33' E 134°46'611.0
2020-Jan-11 21:00N 34°35' E 134°53'22 5.5
2020-Jan-11 17:00N 34°14' E 134°59'10 9.4
2020-Jan-11 15:58N 34°04' E 134°58'247 7.8
2020-Jan-10 08:30N 35°18' E 139°44'5 9.5
2020-Jan-10 08:00N 35°23' E 139°42'4 7.1
2020-Jan-10 07:31N 35°26' E 139°43'0 0.3
2020-Jan-10 06:59N 35°26' E 139°43'0 0.1
2020-Jan-10 06:29N 35°26' E 139°43'3 0.6
2020-Jan-10 01:30N 35°27' E 139°46'4 8.0
2020-Jan-10 00:57N 35°29' E 139°51'6 0.4
2020-Jan-09 09:19N 35°35' E 139°54'  

Dump ship's entire track history